Dirección General De Aeronáutica Civil

Dirección Meteorológica de Chile - Servicios Climáticos

Informe General de Control de Calidad de la Estación

Listado de niveles de control de calidad para algunos parámetros
Estación Renaico (370073)
Fecha de Revisión de los datos :

Elementos

Registros Niveles de Control Total
Nivel 0 Nivel 1 Nivel 2 Nivel 3 Errores Porcentaje
01 Temperatura del Aire Seco 125.040 0 . 58 0.05 % 0 . 0 . 58 0.05 %
02 Temperatura de Rocío 125.065 0 . 0 . 0 . 0 . 0 0.00 %
03 Humedad Relativa del Aire 125.070 0 . 0 . 0 . 0 . 0 0.00 %
04 Temperatura Máxima PM 1.217 0 . 0 . 1 0.08 % 0 . 1 0.08 %
05 Temperatura Mínima AM 1.197 0 . 0 . 1 0.08 % 0 . 1 0.08 %
06 Agua Caida, Acumulada 6 Horas 21.889 0 . 0 . 0 . 0 . 0 0.00 %
07 Presión Atm. a Nivel de Estación (QFE) 113.731 0 . 0 . 0 . 0 . 0 0.00 %
08 Presión Atm. a Nivel Medio del Mar (QFF) 28.632 0 . 0 . 0 . 0 . 0 0.00 %
09 Presión Atm. Estándar OACI (QNH) 28.632 0 . 0 . 0 . 0 . 0 0.00 %

Totales

570.473 . 0.0000 % . 0.0102 % . 0.0004 % . 0.0000 % 60 0.0105 %

Detalle de Errores Encontrados

Nivel Fecha del Dato Descripción Información Error Fecha Ingreso
1 2019-10-01 06:00:00 Ts debe ser mayor o igual a Td Ts=3.9 - Td=4.4 2023-11-08 10:05:00
1 2019-10-01 12:00:00 Ts debe ser mayor o igual a Td Ts=5.4 - Td=5.6 2023-11-08 10:05:00
1 2019-10-03 12:00:00 Ts debe ser mayor o igual a Td Ts=3.1 - Td=6.2 2023-11-08 10:05:00
1 2019-10-03 13:00:00 Ts debe ser mayor o igual a Td Ts=7.0 - Td=7.8 2023-11-08 10:05:00
1 2019-10-04 11:00:00 Ts debe ser mayor o igual a Td Ts=3.6 - Td=3.7 2023-11-08 10:05:00
1 2019-10-04 12:00:00 Ts debe ser mayor o igual a Td Ts=4.4 - Td=6.4 2023-11-08 10:05:00
1 2019-10-07 11:00:00 Ts debe ser mayor o igual a Td Ts=2.0 - Td=4.4 2023-11-08 10:05:00
1 2019-10-07 12:00:00 Ts debe ser mayor o igual a Td Ts=4.9 - Td=8.0 2023-11-08 10:05:00
1 2019-10-07 13:00:00 Ts debe ser mayor o igual a Td Ts=8.9 - Td=9.2 2023-11-08 10:05:00
1 2019-10-12 11:00:00 Ts debe ser mayor o igual a Td Ts=6.0 - Td=6.9 2023-11-08 10:05:00
1 2019-10-12 12:00:00 Ts debe ser mayor o igual a Td Ts=7.7 - Td=9.2 2023-11-08 10:05:00
1 2019-10-16 12:00:00 Ts debe ser mayor o igual a Td Ts=7.9 - Td=8.3 2023-11-08 10:05:00
1 2019-10-19 11:00:00 Ts debe ser mayor o igual a Td Ts=5.3 - Td=8.0 2023-11-08 10:05:00
1 2019-10-19 12:00:00 Ts debe ser mayor o igual a Td Ts=8.6 - Td=11.4 2023-11-08 10:05:00
1 2019-10-21 11:00:00 Ts debe ser mayor o igual a Td Ts=3.4 - Td=4.3 2023-11-08 10:05:00
1 2019-10-21 12:00:00 Ts debe ser mayor o igual a Td Ts=5.1 - Td=7.1 2023-11-08 10:05:00
1 2019-10-23 11:00:00 Ts debe ser mayor o igual a Td Ts=4.7 - Td=5.8 2023-11-08 10:05:00
1 2019-10-23 12:00:00 Ts debe ser mayor o igual a Td Ts=7.3 - Td=8.0 2023-11-08 10:05:00
1 2019-10-25 11:00:00 Ts debe ser mayor o igual a Td Ts=5.1 - Td=6.4 2023-11-08 10:05:00
1 2019-10-25 12:00:00 Ts debe ser mayor o igual a Td Ts=7.4 - Td=8.9 2023-11-08 10:05:00
1 2019-10-26 13:00:00 Ts debe ser mayor o igual a Td Ts=12.3 - Td=13.0 2023-11-08 10:05:00
1 2019-10-26 14:00:00 Ts debe ser mayor o igual a Td Ts=14.3 - Td=15.0 2023-11-08 10:05:00
1 2019-10-28 07:00:00 Ts debe ser mayor o igual a Td Ts=6.0 - Td=6.5 2023-11-08 10:06:00
1 2019-10-28 12:00:00 Ts debe ser mayor o igual a Td Ts=9.8 - Td=9.9 2023-11-08 10:06:00
1 2019-10-29 01:00:00 Ts debe ser mayor o igual a Td Ts=9.6 - Td=9.7 2023-11-08 10:06:00
1 2019-10-29 12:00:00 Ts debe ser mayor o igual a Td Ts=9.2 - Td=9.9 2023-11-08 10:06:00
1 2019-10-29 14:00:00 Ts debe ser mayor o igual a Td Ts=10.3 - Td=11.5 2023-11-08 10:06:00
1 2019-10-29 16:00:00 Ts debe ser mayor o igual a Td Ts=12.4 - Td=14.2 2023-11-08 10:06:00
1 2019-10-30 08:00:00 Ts debe ser mayor o igual a Td Ts=3.0 - Td=3.9 2023-11-08 10:06:00
1 2019-10-30 11:00:00 Ts debe ser mayor o igual a Td Ts=3.3 - Td=5.2 2023-11-08 10:06:00
1 2019-10-30 12:00:00 Ts debe ser mayor o igual a Td Ts=5.7 - Td=7.5 2023-11-08 10:06:00
1 2019-10-31 12:00:00 Ts debe ser mayor o igual a Td Ts=7.2 - Td=8.7 2023-11-08 10:06:00
1 2019-11-01 14:00:00 Ts debe ser mayor o igual a Td Ts=10.9 - Td=11.1 2023-11-08 10:06:00
1 2019-11-01 16:00:00 Ts debe ser mayor o igual a Td Ts=13.7 - Td=13.9 2023-11-08 10:06:00
1 2019-11-14 11:00:00 Ts debe ser mayor o igual a Td Ts=9.6 - Td=10.6 2023-11-08 10:06:00
1 2019-11-15 10:00:00 Ts debe ser mayor o igual a Td Ts=12.2 - Td=12.9 2023-11-08 10:06:00
1 2019-11-15 11:00:00 Ts debe ser mayor o igual a Td Ts=13.6 - Td=13.9 2023-11-08 10:06:00
1 2019-11-16 08:00:00 Ts debe ser mayor o igual a Td Ts=10.8 - Td=11.0 2023-11-08 10:06:00
1 2019-11-16 11:00:00 Ts debe ser mayor o igual a Td Ts=10.5 - Td=12.2 2023-11-08 10:06:00
1 2019-11-16 12:00:00 Ts debe ser mayor o igual a Td Ts=12.8 - Td=14.0 2023-11-08 10:06:00
1 2019-11-17 11:00:00 Ts debe ser mayor o igual a Td Ts=6.8 - Td=9.5 2023-11-08 10:06:00
1 2019-11-17 12:00:00 Ts debe ser mayor o igual a Td Ts=10.4 - Td=11.7 2023-11-08 10:06:00
1 2019-11-18 11:00:00 Ts debe ser mayor o igual a Td Ts=10.3 - Td=11.0 2023-11-08 10:06:00
1 2019-11-19 11:00:00 Ts debe ser mayor o igual a Td Ts=11.5 - Td=11.6 2023-11-08 10:06:00
1 2019-11-24 05:00:00 Ts debe ser mayor o igual a Td Ts=11.3 - Td=11.5 2023-11-08 10:06:00
1 2019-11-24 11:00:00 Ts debe ser mayor o igual a Td Ts=12.5 - Td=12.6 2023-11-08 10:06:00
1 2019-11-25 10:00:00 Ts debe ser mayor o igual a Td Ts=6.3 - Td=7.6 2023-11-08 10:06:00
1 2019-11-25 11:00:00 Ts debe ser mayor o igual a Td Ts=8.4 - Td=8.9 2023-11-08 10:06:00
1 2019-11-26 10:00:00 Ts debe ser mayor o igual a Td Ts=-0.5 - Td=0.6 2023-11-08 10:06:00
1 2019-11-26 11:00:00 Ts debe ser mayor o igual a Td Ts=1.2 - Td=4.9 2023-11-08 10:06:00
1 2019-11-26 12:00:00 Ts debe ser mayor o igual a Td Ts=5.6 - Td=8.1 2023-11-08 10:06:00
1 2019-11-27 11:00:00 Ts debe ser mayor o igual a Td Ts=7.2 - Td=8.7 2023-11-08 10:06:00
1 2019-11-29 09:00:00 Ts debe ser mayor o igual a Td Ts=9.5 - Td=9.9 2023-11-08 10:06:00
1 2019-11-29 11:00:00 Ts debe ser mayor o igual a Td Ts=10.8 - Td=11.0 2023-11-08 10:06:00
1 2019-11-29 12:00:00 Ts debe ser mayor o igual a Td Ts=11.7 - Td=11.8 2023-11-08 10:06:00
1 2019-11-30 10:00:00 Ts debe ser mayor o igual a Td Ts=6.0 - Td=6.3 2023-11-08 10:06:00
1 2019-11-30 11:00:00 Ts debe ser mayor o igual a Td Ts=7.3 - Td=8.7 2023-11-08 10:06:00
1 2019-12-11 11:00:00 Ts debe ser mayor o igual a Td Ts=10.6 - Td=10.8 2023-11-08 10:06:00
Errores del Nivel 58
Nivel Fecha del Dato Descripción Información Error Fecha Ingreso
2 2020-01-07 00:00:00 Temperatura 24.7 del 06-01-2020 21:00, Mayor que la Máxima 18.8 07-01-2020 00:00 24.7 -- 18.8 2020-02-10 20:05:00
2 2020-01-07 12:00:00 Temperatura 11.8 del 07-01-2020 06:00, Menor que la Mínima 12.4 07-01-2020 12:00 11.8 -- 12.4 2020-02-10 20:05:00
Errores del Nivel 2
Informe generado el 05-03-2024 10:38
Requerimiento: RE6001